sensor_id;sensor_type;location;lat;lon;timestamp;pressure;altitude;pressure_sealevel;temperature;humidity
68594;BME280;55563;52.416;13.548;2023-03-20T00:00:55;101124.56;;;10.77;100.00
68594;BME280;55563;52.416;13.548;2023-03-20T00:02:57;101125.66;;;10.81;100.00
68594;BME280;55563;52.416;13.548;2023-03-20T00:04:58;101121.44;;;10.80;100.00
68594;BME280;55563;52.416;13.548;2023-03-20T00:06:58;101124.88;;;10.80;100.00
68594;BME280;55563;52.416;13.548;2023-03-20T00:08:59;101125.41;;;10.82;100.00
68594;BME280;55563;52.416;13.548;2023-03-20T00:11:01;101121.44;;;10.80;100.00
68594;BME280;55563;52.416;13.548;2023-03-20T00:13:03;101124.38;;;10.83;100.00
68594;BME280;55563;52.416;13.548;2023-03-20T00:15:07;101127.25;;;10.82;100.00
68594;BME280;55563;52.416;13.548;2023-03-20T00:17:18;101122.19;;;10.75;100.00
68594;BME280;55563;52.416;13.548;2023-03-20T00:19:23;101128.13;;;10.66;100.00
68594;BME280;55563;52.416;13.548;2023-03-20T00:21:23;101125.81;;;10.69;100.00
68594;BME280;55563;52.416;13.548;2023-03-20T00:23:25;101129.22;;;10.70;100.00
68594;BME280;55563;52.416;13.548;2023-03-20T00:25:26;101132.91;;;10.69;100.00
68594;BME280;55563;52.416;13.548;2023-03-20T00:27:27;101135.53;;;10.69;100.00
68594;BME280;55563;52.416;13.548;2023-03-20T00:29:29;101136.28;;;10.64;100.00
68594;BME280;55563;52.416;13.548;2023-03-20T00:31:35;101125.81;;;10.47;100.00
68594;BME280;55563;52.416;13.548;2023-03-20T00:33:37;101128.00;;;10.56;100.00
68594;BME280;55563;52.416;13.548;2023-03-20T00:35:37;101122.38;;;10.47;100.00
68594;BME280;55563;52.416;13.548;2023-03-20T00:37:38;101122.59;;;10.40;100.00
68594;BME280;55563;52.416;13.548;2023-03-20T00:39:39;101119.56;;;10.32;100.00
68594;BME280;55563;52.416;13.548;2023-03-20T00:41:49;101124.00;;;10.26;100.00
68594;BME280;55563;52.416;13.548;2023-03-20T00:43:54;101122.03;;;10.17;100.00
68594;BME280;55563;52.416;13.548;2023-03-20T00:45:56;101122.81;;;10.17;100.00
68594;BME280;55563;52.416;13.548;2023-03-20T00:47:57;101114.38;;;10.15;100.00
68594;BME280;55563;52.416;13.548;2023-03-20T00:49:58;101126.41;;;10.11;100.00
68594;BME280;55563;52.416;13.548;2023-03-20T00:52:00;101116.06;;;10.04;100.00
68594;BME280;55563;52.416;13.548;2023-03-20T00:54:08;101113.94;;;10.01;100.00
68594;BME280;55563;52.416;13.548;2023-03-20T00:56:28;101118.69;;;10.04;100.00
68594;BME280;55563;52.416;13.548;2023-03-20T00:58:30;101121.72;;;9.96;100.00
68594;BME280;55563;52.416;13.548;2023-03-20T01:00:38;101126.19;;;9.96;100.00
68594;BME280;55563;52.416;13.548;2023-03-20T01:02:40;101124.66;;;10.00;100.00
68594;BME280;55563;52.416;13.548;2023-03-20T01:04:41;101127.28;;;10.00;100.00
68594;BME280;55563;52.416;13.548;2023-03-20T01:06:42;101125.81;;;9.87;100.00
68594;BME280;55563;52.416;13.548;2023-03-20T01:08:43;101123.56;;;9.79;100.00
68594;BME280;55563;52.416;13.548;2023-03-20T01:10:45;101124.56;;;9.73;100.00
68594;BME280;55563;52.416;13.548;2023-03-20T01:12:48;101126.03;;;9.69;100.00
68594;BME280;55563;52.416;13.548;2023-03-20T01:14:54;101121.22;;;9.78;100.00
68594;BME280;55563;52.416;13.548;2023-03-20T01:16:55;101124.47;;;9.68;100.00
68594;BME280;55563;52.416;13.548;2023-03-20T01:18:56;101120.34;;;9.72;100.00
68594;BME280;55563;52.416;13.548;2023-03-20T01:20:57;101127.72;;;9.75;100.00
68594;BME280;55563;52.416;13.548;2023-03-20T01:22:58;101131.94;;;9.76;100.00
68594;BME280;55563;52.416;13.548;2023-03-20T01:24:59;101125.59;;;9.72;100.00
68594;BME280;55563;52.416;13.548;2023-03-20T01:27:00;101128.59;;;9.64;100.00
68594;BME280;55563;52.416;13.548;2023-03-20T01:29:11;101128.38;;;9.49;100.00
68594;BME280;55563;52.416;13.548;2023-03-20T01:31:16;101130.38;;;9.58;100.00
68594;BME280;55563;52.416;13.548;2023-03-20T01:33:20;101130.53;;;9.69;100.00
68594;BME280;55563;52.416;13.548;2023-03-20T01:35:27;101127.03;;;9.63;100.00
68594;BME280;55563;52.416;13.548;2023-03-20T01:37:31;101133.00;;;9.58;100.00
68594;BME280;55563;52.416;13.548;2023-03-20T01:39:36;101127.75;;;9.58;100.00
68594;BME280;55563;52.416;13.548;2023-03-20T01:41:38;101134.88;;;9.46;100.00
68594;BME280;55563;52.416;13.548;2023-03-20T01:43:41;101130.03;;;9.38;100.00
68594;BME280;55563;52.416;13.548;2023-03-20T01:45:58;101129.00;;;9.39;100.00
68594;BME280;55563;52.416;13.548;2023-03-20T01:48:14;101140.63;;;9.43;100.00
68594;BME280;55563;52.416;13.548;2023-03-20T01:50:32;101137.19;;;9.59;100.00
68594;BME280;55563;52.416;13.548;2023-03-20T01:52:38;101134.25;;;9.56;100.00
68594;BME280;55563;52.416;13.548;2023-03-20T01:54:39;101136.63;;;9.41;100.00
68594;BME280;55563;52.416;13.548;2023-03-20T01:56:52;101130.97;;;9.32;100.00
68594;BME280;55563;52.416;13.548;2023-03-20T01:58:59;101137.44;;;9.41;100.00
68594;BME280;55563;52.416;13.548;2023-03-20T02:01:03;101136.06;;;9.55;100.00
68594;BME280;55563;52.416;13.548;2023-03-20T02:03:06;101136.00;;;9.50;100.00
68594;BME280;55563;52.416;13.548;2023-03-20T02:05:28;101128.22;;;9.39;100.00
68594;BME280;55563;52.416;13.548;2023-03-20T02:07:32;101136.97;;;9.44;100.00
68594;BME280;55563;52.416;13.548;2023-03-20T02:09:37;101127.91;;;9.52;100.00
68594;BME280;55563;52.416;13.548;2023-03-20T02:11:44;101126.47;;;9.61;100.00
68594;BME280;55563;52.416;13.548;2023-03-20T02:13:46;101128.59;;;9.64;100.00
68594;BME280;55563;52.416;13.548;2023-03-20T02:15:58;101129.66;;;9.63;100.00
68594;BME280;55563;52.416;13.548;2023-03-20T02:18:15;101134.41;;;9.66;100.00
68594;BME280;55563;52.416;13.548;2023-03-20T02:25:50;101145.16;;;9.48;100.00
68594;BME280;55563;52.416;13.548;2023-03-20T02:38:03;101133.22;;;9.57;100.00
68594;BME280;55563;52.416;13.548;2023-03-20T02:43:04;101131.31;;;9.52;100.00
68594;BME280;55563;52.416;13.548;2023-03-20T02:45:17;101139.03;;;9.42;100.00
68594;BME280;55563;52.416;13.548;2023-03-20T02:47:31;101136.00;;;9.34;100.00
68594;BME280;55563;52.416;13.548;2023-03-20T02:54:39;101145.22;;;9.36;100.00
68594;BME280;55563;52.416;13.548;2023-03-20T02:57:00;101142.50;;;9.31;100.00
68594;BME280;55563;52.416;13.548;2023-03-20T03:01:35;101147.53;;;9.33;100.00
68594;BME280;55563;52.416;13.548;2023-03-20T03:03:46;101141.06;;;9.40;100.00
68594;BME280;55563;52.416;13.548;2023-03-20T03:05:54;101135.06;;;9.40;100.00
68594;BME280;55563;52.416;13.548;2023-03-20T03:07:58;101139.97;;;9.36;100.00
68594;BME280;55563;52.416;13.548;2023-03-20T03:10:11;101146.19;;;9.30;100.00
68594;BME280;55563;52.416;13.548;2023-03-20T03:12:18;101141.38;;;9.27;100.00
68594;BME280;55563;52.416;13.548;2023-03-20T03:14:42;101137.75;;;9.28;100.00
68594;BME280;55563;52.416;13.548;2023-03-20T03:16:49;101145.38;;;9.30;100.00
68594;BME280;55563;52.416;13.548;2023-03-20T03:19:00;101147.53;;;9.33;100.00
68594;BME280;55563;52.416;13.548;2023-03-20T03:21:05;101143.06;;;9.33;100.00
68594;BME280;55563;52.416;13.548;2023-03-20T03:23:28;101141.00;;;9.35;100.00
68594;BME280;55563;52.416;13.548;2023-03-20T03:25:31;101143.06;;;9.33;100.00
68594;BME280;55563;52.416;13.548;2023-03-20T03:27:36;101136.38;;;9.26;100.00
68594;BME280;55563;52.416;13.548;2023-03-20T03:29:39;101145.13;;;9.31;100.00
68594;BME280;55563;52.416;13.548;2023-03-20T03:31:43;101145.91;;;9.32;100.00
68594;BME280;55563;52.416;13.548;2023-03-20T03:33:47;101143.00;;;9.28;100.00
68594;BME280;55563;52.416;13.548;2023-03-20T03:35:51;101138.84;;;9.32;100.00
68594;BME280;55563;52.416;13.548;2023-03-20T03:40:48;101145.59;;;9.28;100.00
68594;BME280;55563;52.416;13.548;2023-03-20T03:43:00;101144.91;;;9.33;100.00
68594;BME280;55563;52.416;13.548;2023-03-20T03:45:11;101138.38;;;9.35;100.00
68594;BME280;55563;52.416;13.548;2023-03-20T03:47:20;101144.91;;;9.33;100.00
68594;BME280;55563;52.416;13.548;2023-03-20T03:49:26;101144.91;;;9.33;100.00
68594;BME280;55563;52.416;13.548;2023-03-20T03:51:32;101140.44;;;9.33;100.00
68594;BME280;55563;52.416;13.548;2023-03-20T03:53:41;101141.56;;;9.37;100.00
68594;BME280;55563;52.416;13.548;2023-03-20T03:55:47;101145.22;;;9.36;100.00
68594;BME280;55563;52.416;13.548;2023-03-20T03:57:55;101140.22;;;9.35;100.00
68594;BME280;55563;52.416;13.548;2023-03-20T03:59:57;101141.56;;;9.37;100.00
68594;BME280;55563;52.416;13.548;2023-03-20T04:02:03;101146.00;;;9.37;100.00
68594;BME280;55563;52.416;13.548;2023-03-20T04:04:07;101155.16;;;9.34;100.00
68594;BME280;55563;52.416;13.548;2023-03-20T04:06:10;101150.63;;;9.30;100.00
68594;BME280;55563;52.416;13.548;2023-03-20T04:08:13;101155.41;;;9.33;100.00
68594;BME280;55563;52.416;13.548;2023-03-20T04:10:15;101156.19;;;9.33;100.00
68594;BME280;55563;52.416;13.548;2023-03-20T04:12:34;101153.09;;;9.36;100.00
68594;BME280;55563;52.416;13.548;2023-03-20T04:14:35;101153.09;;;9.36;100.00
68594;BME280;55563;52.416;13.548;2023-03-20T04:16:36;101154.81;;;9.31;100.00
68594;BME280;55563;52.416;13.548;2023-03-20T04:18:37;101153.25;;;9.30;100.00
68594;BME280;55563;52.416;13.548;2023-03-20T04:20:38;101155.22;;;9.23;100.00
68594;BME280;55563;52.416;13.548;2023-03-20T04:22:39;101152.38;;;9.24;100.00
68594;BME280;55563;52.416;13.548;2023-03-20T04:24:43;101155.94;;;9.18;100.00
68594;BME280;55563;52.416;13.548;2023-03-20T04:26:44;101159.03;;;9.15;100.00
68594;BME280;55563;52.416;13.548;2023-03-20T04:28:45;101164.97;;;9.10;100.00
68594;BME280;55563;52.416;13.548;2023-03-20T04:31:06;101161.56;;;9.10;100.00
68594;BME280;55563;52.416;13.548;2023-03-20T04:33:14;101168.63;;;9.09;100.00
68594;BME280;55563;52.416;13.548;2023-03-20T04:35:35;101174.91;;;9.08;100.00
68594;BME280;55563;52.416;13.548;2023-03-20T04:37:42;101174.41;;;9.11;100.00
68594;BME280;55563;52.416;13.548;2023-03-20T04:39:42;101174.41;;;9.11;100.00
68594;BME280;55563;52.416;13.548;2023-03-20T04:41:44;101177.84;;;9.12;100.00
68594;BME280;55563;52.416;13.548;2023-03-20T04:43:45;101182.22;;;9.06;100.00
68594;BME280;55563;52.416;13.548;2023-03-20T04:45:46;101184.91;;;9.11;100.00
68594;BME280;55563;52.416;13.548;2023-03-20T04:47:47;101187.78;;;9.10;100.00
68594;BME280;55563;52.416;13.548;2023-03-20T04:49:48;101187.13;;;9.03;100.00
68594;BME280;55563;52.416;13.548;2023-03-20T04:51:52;101180.84;;;9.04;100.00
68594;BME280;55563;52.416;13.548;2023-03-20T04:54:04;101188.50;;;9.05;100.00
68594;BME280;55563;52.416;13.548;2023-03-20T04:56:05;101181.97;;;9.08;100.00
68594;BME280;55563;52.416;13.548;2023-03-20T04:58:07;101179.81;;;9.05;100.00
68594;BME280;55563;52.416;13.548;2023-03-20T05:00:09;101175.69;;;9.09;100.00
68594;BME280;55563;52.416;13.548;2023-03-20T05:02:11;101181.75;;;9.09;100.00
68594;BME280;55563;52.416;13.548;2023-03-20T05:04:14;101174.66;;;9.10;100.00
68594;BME280;55563;52.416;13.548;2023-03-20T05:06:15;101176.50;;;9.09;100.00
68594;BME280;55563;52.416;13.548;2023-03-20T05:08:18;101174.91;;;9.08;100.00
68594;BME280;55563;52.416;13.548;2023-03-20T05:10:18;101175.69;;;9.09;100.00
68594;BME280;55563;52.416;13.548;2023-03-20T05:12:26;101183.78;;;9.07;100.00
68594;BME280;55563;52.416;13.548;2023-03-20T05:14:46;101185.38;;;9.08;100.00
68594;BME280;55563;52.416;13.548;2023-03-20T05:17:07;101181.41;;;9.06;100.00
68594;BME280;55563;52.416;13.548;2023-03-20T05:19:17;101187.47;;;9.06;100.00
68594;BME280;55563;52.416;13.548;2023-03-20T05:21:29;101171.72;;;9.06;100.00
68594;BME280;55563;52.416;13.548;2023-03-20T05:23:43;101182.44;;;9.05;100.00
68594;BME280;55563;52.416;13.548;2023-03-20T05:26:04;101187.13;;;9.03;100.00
68594;BME280;55563;52.416;13.548;2023-03-20T05:28:26;101196.34;;;9.05;100.00
68594;BME280;55563;52.416;13.548;2023-03-20T05:30:42;101188.81;;;9.09;100.00
68594;BME280;55563;52.416;13.548;2023-03-20T05:33:02;101183.06;;;8.95;100.00
68594;BME280;55563;52.416;13.548;2023-03-20T05:35:14;101189.50;;;9.04;100.00
68594;BME280;55563;52.416;13.548;2023-03-20T05:37:21;101192.72;;;9.06;100.00
68594;BME280;55563;52.416;13.548;2023-03-20T05:39:41;101192.44;;;9.08;100.00
68594;BME280;55563;52.416;13.548;2023-03-20T05:41:59;101190.94;;;9.12;100.00
68594;BME280;55563;52.416;13.548;2023-03-20T05:44:20;101187.31;;;9.13;100.00
68594;BME280;55563;52.416;13.548;2023-03-20T05:46:29;101182.53;;;9.10;100.00
68594;BME280;55563;52.416;13.548;2023-03-20T05:48:40;101191.19;;;9.10;100.00
68594;BME280;55563;52.416;13.548;2023-03-20T05:50:51;101189.13;;;9.12;100.00
68594;BME280;55563;52.416;13.548;2023-03-20T05:53:03;101184.59;;;9.08;100.00
68594;BME280;55563;52.416;13.548;2023-03-20T05:55:24;101179.44;;;9.13;100.00
68594;BME280;55563;52.416;13.548;2023-03-20T05:57:36;101183.66;;;9.14;100.00
68594;BME280;55563;52.416;13.548;2023-03-20T05:59:53;101189.13;;;9.12;100.00
68594;BME280;55563;52.416;13.548;2023-03-20T06:02:13;101188.69;;;9.15;100.00
68594;BME280;55563;52.416;13.548;2023-03-20T06:04:21;101182.16;;;9.18;100.00
68594;BME280;55563;52.416;13.548;2023-03-20T06:06:41;101192.06;;;9.16;100.00
68594;BME280;55563;52.416;13.548;2023-03-20T06:08:42;101185.25;;;9.15;100.00
68594;BME280;55563;52.416;13.548;2023-03-20T06:10:43;101199.47;;;9.19;100.00
68594;BME280;55563;52.416;13.548;2023-03-20T06:12:45;101198.69;;;9.18;100.00
68594;BME280;55563;52.416;13.548;2023-03-20T06:14:45;101202.81;;;9.14;100.00
68594;BME280;55563;52.416;13.548;2023-03-20T06:16:47;101201.00;;;9.15;100.00
68594;BME280;55563;52.416;13.548;2023-03-20T06:18:49;101208.84;;;9.15;100.00
68594;BME280;55563;52.416;13.548;2023-03-20T06:20:51;101215.13;;;9.14;100.00
68594;BME280;55563;52.416;13.548;2023-03-20T06:22:53;101208.28;;;9.13;100.00
68594;BME280;55563;52.416;13.548;2023-03-20T06:24:53;101215.53;;;9.23;100.00
68594;BME280;55563;52.416;13.548;2023-03-20T06:26:55;101212.38;;;9.21;100.00
68594;BME280;55563;52.416;13.548;2023-03-20T06:28:56;101219.19;;;9.22;100.00
68594;BME280;55563;52.416;13.548;2023-03-20T06:30:57;101217.47;;;9.27;100.00
68594;BME280;55563;52.416;13.548;2023-03-20T06:32:58;101218.25;;;9.28;100.00
68594;BME280;55563;52.416;13.548;2023-03-20T06:35:06;101225.66;;;9.31;100.00
68594;BME280;55563;52.416;13.548;2023-03-20T06:37:08;101230.13;;;9.30;100.00
68594;BME280;55563;52.416;13.548;2023-03-20T06:39:09;101228.63;;;9.34;100.00
68594;BME280;55563;52.416;13.548;2023-03-20T06:41:10;101230.13;;;9.30;100.00
68594;BME280;55563;52.416;13.548;2023-03-20T06:43:12;101232.91;;;9.40;100.00
68594;BME280;55563;52.416;13.548;2023-03-20T06:45:21;101236.19;;;9.47;100.00
68594;BME280;55563;52.416;13.548;2023-03-20T06:47:26;101234.69;;;9.51;100.00
68594;BME280;55563;52.416;13.548;2023-03-20T06:49:26;101240.50;;;9.53;100.00
68594;BME280;55563;52.416;13.548;2023-03-20T06:51:27;101237.41;;;9.56;100.00
68594;BME280;55563;52.416;13.548;2023-03-20T06:53:28;101243.22;;;9.58;100.00
68594;BME280;55563;52.416;13.548;2023-03-20T06:55:49;101243.44;;;9.57;100.00
68594;BME280;55563;52.416;13.548;2023-03-20T06:57:51;101259.41;;;9.55;100.00
68594;BME280;55563;52.416;13.548;2023-03-20T06:59:52;101250.28;;;9.58;100.00
68594;BME280;55563;52.416;13.548;2023-03-20T07:01:54;101254.03;;;9.62;100.00
68594;BME280;55563;52.416;13.548;2023-03-20T07:03:54;101268.97;;;9.61;100.00
68594;BME280;55563;52.416;13.548;2023-03-20T07:06:00;101267.28;;;9.55;100.00
68594;BME280;55563;52.416;13.548;2023-03-20T07:08:01;101275.16;;;9.55;100.00
68594;BME280;55563;52.416;13.548;2023-03-20T07:10:02;101268.56;;;9.53;100.00
68594;BME280;55563;52.416;13.548;2023-03-20T07:12:04;101267.63;;;9.59;100.00
68594;BME280;55563;52.416;13.548;2023-03-20T07:14:06;101265.78;;;9.59;100.00
68594;BME280;55563;52.416;13.548;2023-03-20T07:16:17;101258.97;;;9.58;100.00
68594;BME280;55563;52.416;13.548;2023-03-20T07:18:17;101273.41;;;9.61;100.00
68594;BME280;55563;52.416;13.548;2023-03-20T07:20:18;101269.19;;;9.60;100.00
68594;BME280;55563;52.416;13.548;2023-03-20T07:22:23;101266.25;;;9.56;100.00
68594;BME280;55563;52.416;13.548;2023-03-20T07:24:26;101276.97;;;9.55;100.00
68594;BME280;55563;52.416;13.548;2023-03-20T07:26:27;101273.91;;;9.58;100.00
68594;BME280;55563;52.416;13.548;2023-03-20T07:28:28;101279.47;;;9.61;100.00
68594;BME280;55563;52.416;13.548;2023-03-20T07:30:42;101275.34;;;9.66;100.00
68594;BME280;55563;52.416;13.548;2023-03-20T07:32:43;101276.53;;;9.58;100.00
68594;BME280;55563;52.416;13.548;2023-03-20T07:34:45;101278.41;;;9.46;100.00
68594;BME280;55563;52.416;13.548;2023-03-20T07:36:46;101278.16;;;9.47;100.00
68594;BME280;55563;52.416;13.548;2023-03-20T07:38:51;101281.81;;;9.46;100.00
68594;BME280;55563;52.416;13.548;2023-03-20T07:40:53;101291.78;;;9.44;100.00
68594;BME280;55563;52.416;13.548;2023-03-20T07:42:59;101290.25;;;9.48;100.00
68594;BME280;55563;52.416;13.548;2023-03-20T07:45:20;101294.94;;;9.46;100.00
68594;BME280;55563;52.416;13.548;2023-03-20T07:47:21;101303.63;;;9.35;100.00
68594;BME280;55563;52.416;13.548;2023-03-20T07:49:21;101297.25;;;9.43;100.00
68594;BME280;55563;52.416;13.548;2023-03-20T07:51:23;101300.00;;;9.36;100.00
68594;BME280;55563;52.416;13.548;2023-03-20T07:53:23;101302.72;;;9.41;100.00
68594;BME280;55563;52.416;13.548;2023-03-20T07:55:24;101302.16;;;9.39;100.00
68594;BME280;55563;52.416;13.548;2023-03-20T07:57:25;101302.38;;;9.38;100.00
68594;BME280;55563;52.416;13.548;2023-03-20T07:59:26;101304.81;;;9.28;100.00
68594;BME280;55563;52.416;13.548;2023-03-20T08:01:26;101304.78;;;9.39;100.00
68594;BME280;55563;52.416;13.548;2023-03-20T08:03:27;101304.91;;;9.33;100.00
68594;BME280;55563;52.416;13.548;2023-03-20T08:05:28;101305.94;;;9.32;100.00
68594;BME280;55563;52.416;13.548;2023-03-20T08:07:29;101309.06;;;9.17;100.00
68594;BME280;55563;52.416;13.548;2023-03-20T08:09:30;101312.59;;;9.23;100.00
68594;BME280;55563;52.416;13.548;2023-03-20T08:11:31;101319.44;;;9.24;100.00
68594;BME280;55563;52.416;13.548;2023-03-20T08:13:32;101306.31;;;9.24;100.00
68594;BME280;55563;52.416;13.548;2023-03-20T08:15:33;101316.22;;;9.22;100.00
68594;BME280;55563;52.416;13.548;2023-03-20T08:17:33;101310.88;;;9.28;100.00
68594;BME280;55563;52.416;13.548;2023-03-20T08:19:34;101312.47;;;9.29;100.00
68594;BME280;55563;52.416;13.548;2023-03-20T08:21:35;101318.34;;;9.36;100.00
68594;BME280;55563;52.416;13.548;2023-03-20T08:23:36;101314.69;;;9.49;100.00
68594;BME280;55563;52.416;13.548;2023-03-20T08:25:37;101313.63;;;9.50;100.00
68594;BME280;55563;52.416;13.548;2023-03-20T08:27:38;101312.00;;;9.60;100.00
68594;BME280;55563;52.416;13.548;2023-03-20T08:29:38;101308.03;;;9.58;100.00
68594;BME280;55563;52.416;13.548;2023-03-20T08:31:39;101324.41;;;9.65;100.00
68594;BME280;55563;52.416;13.548;2023-03-20T08:33:39;101318.66;;;9.51;100.00
68594;BME280;55563;52.416;13.548;2023-03-20T08:35:40;101330.53;;;9.54;100.00
68594;BME280;55563;52.416;13.548;2023-03-20T08:37:41;101331.47;;;9.64;100.00
68594;BME280;55563;52.416;13.548;2023-03-20T08:39:42;101318.13;;;9.66;100.00
68594;BME280;55563;52.416;13.548;2023-03-20T08:41:43;101328.63;;;9.66;100.00
68594;BME280;55563;52.416;13.548;2023-03-20T08:43:45;101337.88;;;9.69;100.00
68594;BME280;55563;52.416;13.548;2023-03-20T08:45:46;101326.50;;;9.63;100.00
68594;BME280;55563;52.416;13.548;2023-03-20T08:47:49;101337.31;;;9.67;100.00
68594;BME280;55563;52.416;13.548;2023-03-20T08:49:49;101344.09;;;9.51;100.00
68594;BME280;55563;52.416;13.548;2023-03-20T08:51:50;101348.00;;;9.48;100.00
68594;BME280;55563;52.416;13.548;2023-03-20T08:53:50;101348.63;;;9.55;100.00
68594;BME280;55563;52.416;13.548;2023-03-20T08:55:52;101342.84;;;9.53;100.00
68594;BME280;55563;52.416;13.548;2023-03-20T08:57:53;101345.66;;;9.63;100.00
68594;BME280;55563;52.416;13.548;2023-03-20T08:59:57;101341.16;;;9.76;100.00
68594;BME280;55563;52.416;13.548;2023-03-20T09:01:57;101330.44;;;9.94;100.00
68594;BME280;55563;52.416;13.548;2023-03-20T09:03:58;101334.53;;;10.01;100.00
68594;BME280;55563;52.416;13.548;2023-03-20T09:05:59;101332.47;;;10.54;100.00
68594;BME280;55563;52.416;13.548;2023-03-20T09:08:00;101329.69;;;10.99;100.00
68594;BME280;55563;52.416;13.548;2023-03-20T09:10:00;101331.63;;;11.08;100.00
68594;BME280;55563;52.416;13.548;2023-03-20T09:12:01;101312.69;;;11.06;100.00
68594;BME280;55563;52.416;13.548;2023-03-20T09:14:02;101322.97;;;11.29;100.00
68594;BME280;55563;52.416;13.548;2023-03-20T09:16:02;101317.19;;;11.54;100.00
68594;BME280;55563;52.416;13.548;2023-03-20T09:18:03;101326.72;;;11.60;100.00
68594;BME280;55563;52.416;13.548;2023-03-20T09:20:05;101312.09;;;11.48;100.00
68594;BME280;55563;52.416;13.548;2023-03-20T09:22:05;101323.69;;;11.25;100.00
68594;BME280;55563;52.416;13.548;2023-03-20T09:24:06;101329.25;;;11.28;100.00
68594;BME280;55563;52.416;13.548;2023-03-20T09:26:07;101330.13;;;11.61;100.00
68594;BME280;55563;52.416;13.548;2023-03-20T09:28:08;101326.41;;;11.57;100.00
68594;BME280;55563;52.416;13.548;2023-03-20T09:30:09;101325.03;;;11.49;100.00
68594;BME280;55563;52.416;13.548;2023-03-20T09:32:11;101324.91;;;11.39;100.00
68594;BME280;55563;52.416;13.548;2023-03-20T09:34:12;101324.78;;;11.29;100.00
68594;BME280;55563;52.416;13.548;2023-03-20T09:36:13;101316.53;;;11.69;100.00
68594;BME280;55563;52.416;13.548;2023-03-20T09:38:15;101327.31;;;11.67;100.00
68594;BME280;55563;52.416;13.548;2023-03-20T09:40:23;101334.00;;;11.53;100.00
68594;BME280;55563;52.416;13.548;2023-03-20T09:45:00;101324.31;;;11.10;100.00
68594;BME280;55563;52.416;13.548;2023-03-20T09:47:18;101333.44;;;11.24;100.00
68594;BME280;55563;52.416;13.548;2023-03-20T09:49:38;101320.06;;;11.53;100.00
68594;BME280;55563;52.416;13.548;2023-03-20T09:53:54;101324.81;;;11.77;100.00
68594;BME280;55563;52.416;13.548;2023-03-20T09:55:56;101324.41;;;11.64;100.00
68594;BME280;55563;52.416;13.548;2023-03-20T09:58:19;101324.16;;;11.65;100.00
68594;BME280;55563;52.416;13.548;2023-03-20T10:00:25;101321.69;;;11.80;100.00
68594;BME280;55563;52.416;13.548;2023-03-20T10:02:37;101317.22;;;11.81;100.00
68594;BME280;55563;52.416;13.548;2023-03-20T10:04:42;101330.75;;;12.21;100.00
68594;BME280;55563;52.416;13.548;2023-03-20T10:06:44;101327.19;;;12.43;100.00
68594;BME280;55563;52.416;13.548;2023-03-20T10:08:45;101328.66;;;12.60;100.00
68594;BME280;55563;52.416;13.548;2023-03-20T10:10:52;101327.78;;;12.50;100.00
68594;BME280;55563;52.416;13.548;2023-03-20T10:13:05;101329.03;;;12.42;100.00
68594;BME280;55563;52.416;13.548;2023-03-20T10:15:19;101331.00;;;12.62;100.00
68594;BME280;55563;52.416;13.548;2023-03-20T10:17:50;101335.28;;;12.68;100.00
68594;BME280;55563;52.416;13.548;2023-03-20T10:19:57;101329.19;;;12.26;100.00
68594;BME280;55563;52.416;13.548;2023-03-20T10:22:25;101322.19;;;12.09;100.00
68594;BME280;55563;52.416;13.548;2023-03-20T10:24:33;101324.59;;;12.11;100.00
68594;BME280;55563;52.416;13.548;2023-03-20T10:26:36;101327.78;;;11.86;100.00
68594;BME280;55563;52.416;13.548;2023-03-20T10:28:53;101323.81;;;11.84;100.00
68594;BME280;55563;52.416;13.548;2023-03-20T10:31:09;101323.09;;;11.66;100.00
68594;BME280;55563;52.416;13.548;2023-03-20T10:38:38;101322.34;;;11.71;100.00
68594;BME280;55563;52.416;13.548;2023-03-20T10:40:42;101314.09;;;11.62;100.00
68594;BME280;55563;52.416;13.548;2023-03-20T10:42:46;101316.69;;;11.79;100.00
68594;BME280;55563;52.416;13.548;2023-03-20T10:44:53;101304.13;;;11.91;100.00
68594;BME280;55563;52.416;13.548;2023-03-20T10:46:55;101306.91;;;12.06;100.00
68594;BME280;55563;52.416;13.548;2023-03-20T10:49:10;101316.25;;;12.24;100.00
68594;BME280;55563;52.416;13.548;2023-03-20T10:51:16;101306.97;;;12.16;100.00
68594;BME280;55563;52.416;13.548;2023-03-20T10:53:24;101321.28;;;12.26;100.00
68594;BME280;55563;52.416;13.548;2023-03-20T10:55:29;101314.84;;;12.48;100.00
68594;BME280;55563;52.416;13.548;2023-03-20T10:57:37;101316.97;;;12.46;100.00
68594;BME280;55563;52.416;13.548;2023-03-20T10:59:43;101316.44;;;12.49;100.00
68594;BME280;55563;52.416;13.548;2023-03-20T11:01:45;101310.47;;;12.64;100.00
68594;BME280;55563;52.416;13.548;2023-03-20T11:03:45;101318.91;;;12.61;100.00
68594;BME280;55563;52.416;13.548;2023-03-20T11:05:49;101309.84;;;12.47;100.00
68594;BME280;55563;52.416;13.548;2023-03-20T11:08:11;101304.50;;;12.37;100.00
68594;BME280;55563;52.416;13.548;2023-03-20T11:10:13;101312.19;;;12.43;100.00
68594;BME280;55563;52.416;13.548;2023-03-20T11:12:18;101308.19;;;12.36;100.00
68594;BME280;55563;52.416;13.548;2023-03-20T11:14:22;101308.19;;;12.36;100.00
68594;BME280;55563;52.416;13.548;2023-03-20T11:16:30;101301.31;;;12.35;100.00
68594;BME280;55563;52.416;13.548;2023-03-20T11:18:33;101310.81;;;12.36;100.00
68594;BME280;55563;52.416;13.548;2023-03-20T11:20:38;101301.56;;;12.33;100.00
68594;BME280;55563;52.416;13.548;2023-03-20T11:22:43;101295.44;;;12.22;100.00
68594;BME280;55563;52.416;13.548;2023-03-20T11:24:46;101305.19;;;12.22;100.00